createdAt,value
2023-01-29T00:02:24.122Z,58.52
2023-01-29T00:05:20.756Z,58.75
2023-01-29T00:08:00.478Z,58.94
2023-01-29T00:13:19.929Z,58.99
2023-01-29T00:16:03.312Z,58.17
2023-01-29T00:21:34.666Z,58.96
2023-01-29T00:24:05.292Z,59.82
2023-01-29T00:26:34.130Z,59.18
2023-01-29T00:29:02.847Z,59.33
2023-01-29T00:31:34.412Z,59.62
2023-01-29T00:34:09.083Z,59.56
2023-01-29T00:36:46.555Z,59.84
2023-01-29T00:39:33.726Z,59.65
2023-01-29T00:42:37.203Z,60.39
2023-01-29T00:45:35.860Z,60.87
2023-01-29T00:48:13.905Z,58.69
2023-01-29T00:50:49.057Z,58.81
2023-01-29T00:53:21.648Z,59.21
2023-01-29T00:55:48.308Z,59.83
2023-01-29T00:58:39.123Z,59.86
2023-01-29T01:01:47.106Z,59.32
2023-01-29T01:04:24.845Z,59.31
2023-01-29T01:07:02.307Z,59.54
2023-01-29T01:09:51.344Z,59.65
2023-01-29T01:12:36.808Z,59.58
2023-01-29T01:15:13.124Z,60.18
2023-01-29T01:17:49.154Z,60.37
2023-01-29T01:20:24.148Z,60.42
2023-01-29T01:23:02.359Z,59.84
2023-01-29T01:25:37.202Z,59.33
2023-01-29T01:31:04.309Z,59.87
2023-01-29T01:33:41.119Z,59.43
2023-01-29T01:36:24.968Z,59.73
2023-01-29T01:39:00.831Z,59.39
2023-01-29T01:41:31.057Z,59.43
2023-01-29T01:44:06.061Z,59.80
2023-01-29T01:46:39.319Z,59.22
2023-01-29T01:49:19.919Z,59.34
2023-01-29T01:54:48.869Z,59.63
2023-01-29T01:57:36.870Z,59.82
2023-01-29T02:00:27.784Z,59.84
2023-01-29T02:06:12.957Z,60.54
2023-01-29T02:09:24.763Z,60.61
2023-01-29T02:11:52.100Z,60.62
2023-01-29T02:14:22.423Z,60.69
2023-01-29T02:17:11.601Z,60.71
2023-01-29T02:20:18.399Z,59.78
2023-01-29T02:23:02.725Z,60.38
2023-01-29T02:26:18.446Z,60.52
2023-01-29T02:29:35.807Z,61.73
2023-01-29T02:35:34.943Z,60.86
2023-01-29T02:39:05.318Z,60.61
2023-01-29T02:41:41.877Z,61.11
2023-01-29T02:44:35.697Z,61.19
2023-01-29T02:47:51.067Z,60.90
2023-01-29T02:50:57.835Z,62.51
2023-01-29T02:53:32.707Z,60.71
2023-01-29T02:56:10.368Z,61.25
2023-01-29T02:58:43.367Z,60.51
2023-01-29T03:01:36.251Z,60.52
2023-01-29T03:04:11.701Z,61.14
2023-01-29T03:07:04.292Z,61.83
2023-01-29T03:09:41.673Z,60.61
2023-01-29T03:12:35.411Z,61.04
2023-01-29T03:15:14.390Z,61.44
2023-01-29T03:18:05.155Z,60.73
2023-01-29T03:20:51.126Z,61.31
2023-01-29T03:23:46.039Z,61.28
2023-01-29T03:26:34.835Z,61.51
2023-01-29T03:29:28.251Z,62.03
2023-01-29T03:32:07.024Z,61.64
2023-01-29T03:34:54.853Z,62.36
2023-01-29T03:37:44.010Z,61.79
2023-01-29T03:40:22.076Z,61.69
2023-01-29T03:43:16.919Z,62.53
2023-01-29T03:45:57.260Z,62.85
2023-01-29T03:49:32.494Z,62.76
2023-01-29T03:52:24.724Z,62.69
2023-01-29T03:55:02.180Z,64.04
2023-01-29T03:57:38.686Z,62.64
2023-01-29T04:00:21.803Z,62.86
2023-01-29T04:03:02.338Z,62.75
2023-01-29T04:05:41.476Z,63.20
2023-01-29T04:08:32.820Z,62.89
2023-01-29T04:11:34.921Z,63.23
2023-01-29T04:14:23.096Z,63.07
2023-01-29T04:17:25.307Z,63.42
2023-01-29T04:20:02.900Z,63.15
2023-01-29T04:22:40.171Z,63.00
2023-01-29T04:25:18.429Z,63.00
2023-01-29T04:27:57.831Z,63.63
2023-01-29T04:30:53.669Z,63.57
2023-01-29T04:33:47.501Z,63.12
2023-01-29T04:36:41.983Z,61.99
2023-01-29T04:39:51.017Z,62.84
2023-01-29T04:42:45.125Z,63.78
2023-01-29T04:45:39.315Z,63.06
2023-01-29T04:48:33.775Z,62.97
2023-01-29T04:51:20.425Z,63.17
2023-01-29T04:53:59.673Z,63.03
2023-01-29T04:56:37.317Z,63.38
2023-01-29T04:59:17.463Z,64.21
2023-01-29T05:01:44.825Z,63.00
2023-01-29T05:04:16.545Z,63.55
2023-01-29T05:06:49.295Z,64.08
2023-01-29T05:09:17.660Z,63.62
2023-01-29T05:11:46.504Z,63.69
2023-01-29T05:14:19.819Z,63.90
2023-01-29T05:17:06.148Z,63.80
2023-01-29T05:19:32.890Z,64.22
2023-01-29T05:22:16.721Z,64.35
2023-01-29T05:25:04.316Z,64.49
2023-01-29T05:27:54.445Z,64.69
2023-01-29T05:30:27.692Z,64.74
2023-01-29T05:33:11.455Z,64.62
2023-01-29T05:35:38.442Z,65.31
2023-01-29T05:41:08.186Z,65.64
2023-01-29T05:43:44.050Z,65.25
2023-01-29T05:46:22.817Z,64.38
2023-01-29T05:48:49.603Z,64.26
2023-01-29T05:51:19.192Z,64.42
2023-01-29T05:53:48.930Z,64.49
2023-01-29T05:56:25.990Z,63.82
2023-01-29T05:59:04.425Z,65.69
2023-01-29T06:01:54.779Z,64.46
2023-01-29T06:04:43.084Z,64.71
2023-01-29T06:07:12.648Z,64.45
2023-01-29T06:09:39.405Z,64.87
2023-01-29T06:12:09.240Z,65.02
2023-01-29T06:14:45.895Z,65.54
2023-01-29T06:17:19.479Z,65.39
2023-01-29T06:19:57.849Z,65.63
2023-01-29T06:22:30.524Z,66.18
2023-01-29T06:25:02.694Z,65.81
2023-01-29T06:27:50.468Z,66.35
2023-01-29T06:30:17.723Z,65.66
2023-01-29T06:32:47.630Z,65.26
2023-01-29T06:35:14.541Z,65.67
2023-01-29T06:37:48.797Z,65.70
2023-01-29T06:40:27.809Z,66.28
2023-01-29T06:42:58.505Z,65.11
2023-01-29T06:45:27.624Z,65.64
2023-01-29T06:47:54.410Z,65.80
2023-01-29T06:50:25.241Z,65.91
2023-01-29T06:53:02.518Z,65.08
2023-01-29T06:55:37.981Z,64.63
2023-01-29T06:58:14.175Z,65.20
2023-01-29T07:00:43.286Z,65.14
2023-01-29T07:03:14.754Z,65.06
2023-01-29T07:05:46.859Z,64.69
2023-01-29T07:08:13.891Z,65.28
2023-01-29T07:10:51.817Z,65.51
2023-01-29T07:13:19.886Z,65.02
2023-01-29T07:15:47.603Z,65.31
2023-01-29T07:18:38.101Z,64.95
2023-01-29T07:21:13.463Z,64.76
2023-01-29T07:23:55.537Z,64.53
2023-01-29T07:26:22.274Z,64.33
2023-01-29T07:28:49.059Z,64.59
2023-01-29T07:31:22.277Z,64.66
2023-01-29T07:34:09.458Z,64.46
2023-01-29T07:36:37.697Z,64.44
2023-01-29T07:39:04.448Z,64.86
2023-01-29T07:41:34.052Z,64.36
2023-01-29T07:44:00.794Z,64.07
2023-01-29T07:46:39.543Z,63.39
2023-01-29T07:49:06.306Z,63.78
2023-01-29T07:51:50.545Z,63.91
2023-01-29T07:54:30.455Z,63.49
2023-01-29T07:57:00.352Z,63.53
2023-01-29T07:59:29.759Z,63.79
2023-01-29T08:02:10.206Z,63.08
2023-01-29T08:04:47.815Z,63.14
2023-01-29T08:07:37.716Z,63.51
2023-01-29T08:10:11.605Z,63.45
2023-01-29T08:12:49.569Z,63.27
2023-01-29T08:15:28.224Z,63.44
2023-01-29T08:18:35.545Z,63.60
2023-01-29T08:21:23.964Z,62.79
2023-01-29T08:23:55.491Z,62.94
2023-01-29T08:26:26.525Z,63.36
2023-01-29T08:28:57.217Z,62.40
2023-01-29T08:31:25.660Z,61.24
2023-01-29T08:33:58.957Z,61.21
2023-01-29T08:36:33.316Z,61.57
2023-01-29T08:39:29.250Z,61.02
2023-01-29T08:42:05.564Z,61.50
2023-01-29T08:44:42.053Z,62.49
2023-01-29T08:47:28.643Z,61.84
2023-01-29T08:52:37.789Z,60.42
2023-01-29T08:55:04.987Z,59.73
2023-01-29T08:57:32.226Z,60.19
2023-01-29T09:00:05.758Z,61.09
2023-01-29T09:02:48.707Z,60.23
2023-01-29T09:05:16.565Z,59.50
2023-01-29T09:07:54.290Z,59.92
2023-01-29T09:10:29.645Z,60.02
2023-01-29T09:12:56.477Z,60.91
2023-01-29T09:15:30.089Z,60.43
2023-01-29T09:18:16.541Z,59.47
2023-01-29T09:20:48.031Z,59.45
2023-01-29T09:23:21.368Z,59.67
2023-01-29T09:26:12.519Z,59.19
2023-01-29T09:28:51.881Z,58.65
2023-01-29T09:31:18.821Z,59.22
2023-01-29T09:34:08.978Z,59.21
2023-01-29T09:36:48.310Z,58.52
2023-01-29T09:39:18.243Z,59.01
2023-01-29T09:42:19.108Z,57.60
2023-01-29T09:45:17.683Z,57.80
2023-01-29T09:48:12.086Z,59.33
2023-01-29T09:50:51.835Z,57.05
2023-01-29T09:53:33.664Z,57.52
2023-01-29T09:56:29.098Z,56.03
2023-01-29T09:59:05.580Z,55.44
2023-01-29T10:01:40.523Z,55.43
2023-01-29T10:04:18.987Z,55.68
2023-01-29T10:07:10.485Z,55.26
2023-01-29T10:09:46.164Z,55.24
2023-01-29T10:12:42.711Z,54.97
2023-01-29T10:15:53.784Z,54.61
2023-01-29T10:19:05.997Z,55.76
2023-01-29T10:21:52.772Z,54.96
2023-01-29T10:24:40.472Z,55.21
2023-01-29T10:27:18.337Z,55.45
2023-01-29T10:29:56.597Z,55.07
2023-01-29T10:32:26.339Z,54.86
2023-01-29T10:35:00.083Z,54.82
2023-01-29T10:37:37.007Z,54.20
2023-01-29T10:40:22.781Z,54.44
2023-01-29T10:43:38.873Z,55.28
2023-01-29T10:46:46.203Z,55.28
2023-01-29T10:49:20.578Z,55.52
2023-01-29T10:52:24.619Z,55.74
2023-01-29T10:55:19.427Z,56.57
2023-01-29T10:58:16.160Z,55.76
2023-01-29T11:00:56.270Z,56.06
2023-01-29T11:03:31.251Z,55.23
2023-01-29T11:06:36.912Z,56.05
2023-01-29T11:09:21.846Z,56.04
2023-01-29T11:12:14.237Z,56.65
2023-01-29T11:15:20.381Z,56.92
2023-01-29T11:18:26.377Z,57.15
2023-01-29T11:21:04.822Z,56.59
2023-01-29T11:23:37.116Z,55.77
2023-01-29T11:26:11.566Z,56.75
2023-01-29T11:28:47.463Z,57.24
2023-01-29T11:31:35.562Z,57.89
2023-01-29T11:34:36.335Z,57.96
2023-01-29T11:37:43.108Z,59.41
2023-01-29T11:40:22.544Z,57.17
2023-01-29T11:42:56.887Z,57.25
2023-01-29T11:45:37.884Z,58.09
2023-01-29T11:48:15.973Z,57.83
2023-01-29T11:51:05.532Z,57.77
2023-01-29T11:53:41.565Z,57.08
2023-01-29T11:56:34.215Z,56.53
2023-01-29T11:59:11.042Z,56.51
2023-01-29T12:02:01.354Z,56.40
2023-01-29T12:04:39.757Z,56.30
2023-01-29T12:10:26.297Z,57.33
2023-01-29T12:13:21.510Z,58.02
2023-01-29T12:15:56.802Z,55.99
2023-01-29T12:19:21.125Z,55.72
2023-01-29T12:22:27.676Z,56.48
2023-01-29T12:25:33.580Z,56.07
2023-01-29T12:28:42.517Z,55.40
2023-01-29T12:31:46.356Z,55.98
2023-01-29T12:37:36.642Z,55.89
2023-01-29T12:40:30.630Z,56.05
2023-01-29T12:43:30.604Z,56.13
2023-01-29T12:46:17.548Z,55.93
2023-01-29T12:49:02.654Z,56.24
2023-01-29T12:51:51.882Z,56.33
2023-01-29T12:54:42.654Z,55.23
2023-01-29T12:57:37.340Z,55.63
2023-01-29T13:00:18.373Z,55.36
2023-01-29T13:03:46.526Z,55.11
2023-01-29T13:06:59.661Z,54.65
2023-01-29T13:09:34.372Z,55.75
2023-01-29T13:12:07.335Z,54.83
2023-01-29T13:15:23.690Z,56.80
2023-01-29T13:18:08.370Z,54.31
2023-01-29T13:20:42.659Z,56.01
2023-01-29T13:26:47.009Z,55.15
2023-01-29T13:29:35.850Z,55.75
2023-01-29T13:32:36.023Z,53.75
2023-01-29T13:35:28.849Z,54.90
2023-01-29T13:38:12.959Z,53.28
2023-01-29T13:40:45.065Z,53.79
2023-01-29T13:43:24.018Z,51.93
2023-01-29T13:45:53.881Z,54.17
2023-01-29T13:48:52.785Z,53.66
2023-01-29T13:51:32.263Z,52.99
2023-01-29T13:54:08.350Z,53.04
2023-01-29T13:56:44.447Z,53.11
2023-01-29T13:59:53.764Z,49.16
2023-01-29T14:02:45.713Z,51.24
2023-01-29T14:05:36.505Z,54.76
2023-01-29T14:08:13.676Z,52.07
2023-01-29T14:10:44.639Z,52.58
2023-01-29T14:13:39.775Z,54.16
2023-01-29T14:16:17.788Z,52.52
2023-01-29T14:19:14.217Z,52.37
2023-01-29T14:22:06.157Z,52.14
2023-01-29T14:24:56.333Z,51.74
2023-01-29T14:27:32.943Z,53.99
2023-01-29T14:30:22.299Z,51.57
2023-01-29T14:33:03.539Z,50.72
2023-01-29T14:35:41.196Z,51.52
2023-01-29T14:38:11.066Z,52.91
2023-01-29T14:40:42.672Z,51.76
2023-01-29T14:43:33.099Z,51.32
2023-01-29T14:46:33.447Z,54.98
2023-01-29T14:49:04.420Z,54.37
2023-01-29T14:52:04.996Z,50.49
2023-01-29T14:54:49.296Z,51.97
2023-01-29T14:57:44.582Z,50.04
2023-01-29T15:00:51.294Z,50.00
2023-01-29T15:03:44.522Z,51.66
2023-01-29T15:06:23.197Z,53.51
2023-01-29T15:09:02.938Z,50.94
2023-01-29T15:12:14.158Z,53.74
2023-01-29T15:14:55.971Z,54.07
2023-01-29T15:17:57.985Z,52.75
2023-01-29T15:20:37.497Z,52.49
2023-01-29T15:23:33.287Z,53.22
2023-01-29T15:26:11.716Z,51.11
2023-01-29T15:28:47.107Z,53.53
2023-01-29T15:31:18.737Z,52.90
2023-01-29T15:33:49.137Z,53.28
2023-01-29T15:36:34.508Z,50.48
2023-01-29T15:39:40.963Z,50.04
2023-01-29T15:42:25.979Z,53.53
2023-01-29T15:45:03.364Z,52.06
2023-01-29T15:47:37.678Z,51.94
2023-01-29T15:50:18.292Z,53.11
2023-01-29T15:52:58.313Z,53.68
2023-01-29T15:55:29.005Z,54.29
2023-01-29T15:57:56.248Z,53.53
2023-01-29T16:00:26.521Z,53.68
2023-01-29T16:02:53.848Z,54.66
2023-01-29T16:05:45.172Z,54.65
2023-01-29T16:08:24.867Z,55.27
2023-01-29T16:11:03.535Z,55.97
2023-01-29T16:13:48.368Z,57.15
2023-01-29T16:16:26.518Z,57.56
2023-01-29T16:19:00.749Z,58.84
2023-01-29T16:21:43.700Z,58.41
2023-01-29T16:24:27.365Z,59.33
2023-01-29T16:27:09.541Z,60.44
2023-01-29T16:29:49.551Z,60.49
2023-01-29T16:32:48.633Z,60.45
2023-01-29T16:35:23.667Z,60.49
2023-01-29T16:38:10.820Z,60.78
2023-01-29T16:40:46.059Z,61.21
2023-01-29T16:43:20.716Z,61.93
2023-01-29T16:46:04.563Z,63.01
2023-01-29T16:48:40.243Z,63.12
2023-01-29T16:51:25.853Z,63.65
2023-01-29T16:54:18.497Z,63.71
2023-01-29T16:56:52.918Z,63.74
2023-01-29T16:59:29.190Z,63.48
2023-01-29T17:02:04.539Z,63.44
2023-01-29T17:04:41.856Z,63.31
2023-01-29T17:07:28.933Z,63.57
2023-01-29T17:10:02.073Z,63.30
2023-01-29T17:12:39.691Z,63.16
2023-01-29T17:15:35.315Z,64.04
2023-01-29T17:18:02.910Z,64.39
2023-01-29T17:20:37.610Z,64.28
2023-01-29T17:23:15.494Z,64.82
2023-01-29T17:25:42.630Z,65.17
2023-01-29T17:28:19.056Z,65.31
2023-01-29T17:31:05.879Z,65.27
2023-01-29T17:33:42.573Z,65.05
2023-01-29T17:36:22.559Z,64.70
2023-01-29T17:38:49.601Z,64.43
2023-01-29T17:41:40.795Z,65.12
2023-01-29T17:44:10.519Z,65.81
2023-01-29T17:46:50.706Z,65.25
2023-01-29T17:49:29.056Z,64.65
2023-01-29T17:52:06.159Z,64.15
2023-01-29T17:54:34.925Z,65.88
2023-01-29T17:57:07.462Z,66.62
2023-01-29T17:59:43.066Z,66.23
2023-01-29T18:02:29.760Z,66.31
2023-01-29T18:05:18.259Z,66.11
2023-01-29T18:07:55.136Z,66.10
2023-01-29T18:10:33.750Z,66.56
2023-01-29T18:13:04.237Z,65.67
2023-01-29T18:15:49.590Z,65.68
2023-01-29T18:18:34.099Z,65.82
2023-01-29T18:21:22.693Z,65.87
2023-01-29T18:23:51.678Z,66.83
2023-01-29T18:26:26.085Z,66.76
2023-01-29T18:28:52.942Z,67.18
2023-01-29T18:31:29.891Z,67.46
2023-01-29T18:33:58.769Z,67.15
2023-01-29T18:36:26.335Z,66.81
2023-01-29T18:39:05.813Z,67.36
2023-01-29T18:41:34.176Z,67.34
2023-01-29T18:44:04.012Z,66.61
2023-01-29T18:46:46.917Z,67.08
2023-01-29T18:49:53.111Z,67.64
2023-01-29T18:52:50.264Z,66.74
2023-01-29T18:55:21.268Z,66.69
2023-01-29T18:58:26.248Z,66.67
2023-01-29T19:00:57.714Z,66.64
2023-01-29T19:03:27.065Z,67.10
2023-01-29T19:06:01.365Z,67.64
2023-01-29T19:08:28.569Z,66.95
2023-01-29T19:10:55.581Z,67.61
2023-01-29T19:13:27.296Z,66.84
2023-01-29T19:15:54.803Z,67.18
2023-01-29T19:18:21.819Z,66.68
2023-01-29T19:20:56.131Z,67.13
2023-01-29T19:23:28.457Z,67.41
2023-01-29T19:25:58.308Z,67.81
2023-01-29T19:28:38.193Z,67.35
2023-01-29T19:31:09.636Z,67.26
2023-01-29T19:33:46.053Z,67.36
2023-01-29T19:36:25.147Z,68.01
2023-01-29T19:39:03.783Z,67.50
2023-01-29T19:41:37.539Z,67.10
2023-01-29T19:44:06.842Z,67.38
2023-01-29T19:46:45.770Z,67.94
2023-01-29T19:49:13.294Z,67.91
2023-01-29T19:51:41.108Z,67.38
2023-01-29T19:54:12.955Z,67.11
2023-01-29T19:56:39.779Z,67.31
2023-01-29T19:59:15.860Z,67.81
2023-01-29T20:01:46.888Z,68.00
2023-01-29T20:04:19.287Z,68.45
2023-01-29T20:06:46.166Z,68.21
2023-01-29T20:09:16.555Z,68.29
2023-01-29T20:11:43.366Z,68.63
2023-01-29T20:14:13.129Z,68.35
2023-01-29T20:16:42.884Z,69.16
2023-01-29T20:19:14.195Z,69.42
2023-01-29T20:21:51.324Z,69.03
2023-01-29T20:24:25.220Z,69.38
2023-01-29T20:26:55.191Z,69.96
2023-01-29T20:29:38.493Z,69.70
2023-01-29T20:32:15.360Z,69.96
2023-01-29T20:34:53.446Z,70.82
2023-01-29T20:37:29.604Z,69.89
2023-01-29T20:39:56.554Z,69.55
2023-01-29T20:42:32.321Z,69.25
2023-01-29T20:45:05.925Z,69.14
2023-01-29T20:47:43.184Z,69.68
2023-01-29T20:50:11.875Z,70.27
2023-01-29T20:52:43.157Z,70.02
2023-01-29T20:55:14.232Z,69.90
2023-01-29T20:57:42.760Z,69.92
2023-01-29T21:00:15.700Z,69.75
2023-01-29T21:02:59.781Z,69.71
2023-01-29T21:05:30.730Z,68.81
2023-01-29T21:08:07.210Z,69.03
2023-01-29T21:10:35.651Z,69.96
2023-01-29T21:13:05.541Z,70.53
2023-01-29T21:15:35.534Z,70.65
2023-01-29T21:18:04.672Z,70.53
2023-01-29T21:20:31.964Z,69.72
2023-01-29T21:22:58.898Z,69.81
2023-01-29T21:25:25.732Z,69.69
2023-01-29T21:28:05.822Z,68.99
2023-01-29T21:30:36.328Z,69.31
2023-01-29T21:33:12.479Z,69.18
2023-01-29T21:35:45.247Z,69.29
2023-01-29T21:38:12.297Z,69.06
2023-01-29T21:40:50.722Z,69.95
2023-01-29T21:43:30.608Z,69.66
2023-01-29T21:46:08.600Z,69.59
2023-01-29T21:48:52.733Z,69.88
2023-01-29T21:51:39.139Z,70.26
2023-01-29T21:54:12.839Z,70.02
2023-01-29T21:59:35.349Z,69.98
2023-01-29T22:02:03.634Z,69.73
2023-01-29T22:04:43.503Z,70.19
2023-01-29T22:07:17.028Z,70.63
2023-01-29T22:09:43.851Z,70.66
2023-01-29T22:12:12.328Z,70.48
2023-01-29T22:14:42.361Z,70.31
2023-01-29T22:17:19.641Z,71.12
2023-01-29T22:20:17.820Z,70.38
2023-01-29T22:23:05.254Z,70.45
2023-01-29T22:25:52.950Z,71.20
2023-01-29T22:28:32.438Z,71.20
2023-01-29T22:31:14.102Z,71.45
2023-01-29T22:33:41.914Z,71.23
2023-01-29T22:36:11.960Z,70.71
2023-01-29T22:38:48.840Z,70.80
2023-01-29T22:41:27.055Z,71.36
2023-01-29T22:43:53.949Z,71.52
2023-01-29T22:46:44.295Z,70.98
2023-01-29T22:49:13.762Z,71.42
2023-01-29T22:51:46.277Z,71.26
2023-01-29T22:54:14.181Z,71.68
2023-01-29T22:56:45.083Z,72.06
2023-01-29T22:59:14.109Z,72.17
2023-01-29T23:01:41.031Z,72.20
2023-01-29T23:04:18.182Z,72.21
2023-01-29T23:06:55.487Z,72.50
2023-01-29T23:09:46.951Z,72.29
2023-01-29T23:12:19.945Z,71.91
2023-01-29T23:14:46.899Z,72.36
2023-01-29T23:17:22.990Z,72.13
2023-01-29T23:20:01.422Z,71.56
2023-01-29T23:22:28.298Z,71.17
2023-01-29T23:25:05.250Z,71.16
2023-01-29T23:27:34.199Z,70.98
2023-01-29T23:30:03.489Z,71.17
2023-01-29T23:32:43.792Z,70.64
2023-01-29T23:35:10.735Z,70.70
2023-01-29T23:38:03.104Z,70.62
2023-01-29T23:40:39.987Z,70.62
2023-01-29T23:43:15.885Z,70.62
2023-01-29T23:45:45.723Z,71.04
2023-01-29T23:48:12.599Z,71.54
2023-01-29T23:50:42.505Z,71.67
2023-01-29T23:53:11.921Z,71.08
2023-01-29T23:55:38.782Z,71.22
2023-01-29T23:58:08.128Z,71.34
